Terminal Aerodrome Forecast
Issued by NWS

Home | Current Version | Previous Version | Graphics & Text | Print | Product List | Glossary On
Versions: 1 2 3 4 5 6 7 8 9 10 11 12 13 14 15 16 17 18 19
767
FTUS43 KGRB 240534
TAFCWA
TAF
KCWA 240534Z 2406/2506 02006KT P6SM VCSH OVC035
      TEMPO 2406/2410 5SM -RA BR BKN020
     FM241000 03007KT P6SM VCSH SCT008 OVC015
     FM241500 06009KT P6SM OVC012
     FM241900 06009KT P6SM OVC022=

USA.gov is the U.S. government's official web portal to all federal, state and local government web resources and services.